createdAt,value
2022-08-17T00:01:57.533Z,100419.53
2022-08-17T00:04:09.289Z,100375.94
2022-08-17T00:06:18.378Z,100423.44
2022-08-17T00:08:26.753Z,100424.06
2022-08-17T00:10:30.268Z,100424.06
2022-08-17T00:12:44.627Z,100381.59
2022-08-17T00:14:50.367Z,100426.94
2022-08-17T00:16:56.863Z,100416.28
2022-08-17T00:19:08.423Z,100416.19
2022-08-17T00:21:13.023Z,100371.59
2022-08-17T00:23:18.195Z,100417.78
2022-08-17T00:25:22.998Z,100409.22
2022-08-17T00:27:26.419Z,100416.41
2022-08-17T00:29:29.842Z,100412.09
2022-08-17T00:31:34.217Z,100410.16
2022-08-17T00:33:40.257Z,100416.59
2022-08-17T00:35:44.973Z,100424.97
2022-08-17T00:37:48.455Z,100421.91
2022-08-17T00:39:52.389Z,100414.69
2022-08-17T00:41:57.353Z,100412.81
2022-08-17T00:44:04.468Z,100414.09
2022-08-17T00:46:12.180Z,100407.63
2022-08-17T00:48:29.501Z,100410.94
2022-08-17T00:50:35.660Z,100404.56
2022-08-17T00:52:44.808Z,100395.63
2022-08-17T00:54:52.739Z,100390.19
2022-08-17T00:57:01.801Z,100394.75
2022-08-17T00:59:08.518Z,100387.84
2022-08-17T01:01:13.412Z,100389.06
2022-08-17T01:03:27.043Z,100391.94
2022-08-17T01:05:32.899Z,100399.91
2022-08-17T01:07:37.939Z,100384.16
2022-08-17T01:09:42.999Z,100377.50
2022-08-17T01:11:52.236Z,100361.25
2022-08-17T01:13:57.158Z,100382.50
2022-08-17T01:16:05.984Z,100382.88
2022-08-17T01:18:12.642Z,100396.81
2022-08-17T01:20:16.848Z,100385.44
2022-08-17T01:22:24.018Z,100391.66
2022-08-17T01:24:27.957Z,100385.03
2022-08-17T01:26:34.104Z,100387.59
2022-08-17T01:28:54.309Z,100393.84
2022-08-17T01:31:02.060Z,100392.06
2022-08-17T01:33:05.736Z,100398.91
2022-08-17T01:35:09.647Z,100397.06
2022-08-17T01:37:15.148Z,100409.50
2022-08-17T01:39:24.478Z,100402.47
2022-08-17T01:41:28.709Z,100397.13
2022-08-17T01:43:39.014Z,100397.06
2022-08-17T01:45:46.083Z,100403.38
2022-08-17T01:47:50.573Z,100399.53
2022-08-17T01:49:54.883Z,100399.50
2022-08-17T01:51:58.507Z,100407.34
2022-08-17T01:54:06.280Z,100401.84
2022-08-17T01:56:15.270Z,100388.06
2022-08-17T01:58:19.413Z,100401.19
2022-08-17T02:00:23.158Z,100407.53
2022-08-17T02:02:30.840Z,100400.94
2022-08-17T02:04:35.189Z,100392.44
2022-08-17T02:06:52.511Z,100403.00
2022-08-17T02:09:02.672Z,100407.03
2022-08-17T02:11:11.271Z,100410.03
2022-08-17T02:13:17.403Z,100407.47
2022-08-17T02:15:21.602Z,100410.09
2022-08-17T02:17:25.114Z,100411.31
2022-08-17T02:19:28.603Z,100408.97
2022-08-17T02:21:32.482Z,100408.47
2022-08-17T02:23:41.897Z,100417.31
2022-08-17T02:25:48.671Z,100412.72
2022-08-17T02:27:52.941Z,100411.97
2022-08-17T02:29:57.768Z,100409.34
2022-08-17T02:32:01.859Z,100401.13
2022-08-17T02:34:06.233Z,100401.63
2022-08-17T02:36:10.186Z,100395.22
2022-08-17T02:38:13.705Z,100390.78
2022-08-17T02:40:17.691Z,100388.03
2022-08-17T02:42:42.851Z,100397.44
2022-08-17T02:44:46.279Z,100394.00
2022-08-17T02:46:51.092Z,100400.22
2022-08-17T02:48:54.884Z,100387.63
2022-08-17T02:50:58.329Z,100394.75
2022-08-17T02:53:04.559Z,100401.16
2022-08-17T02:55:13.760Z,100400.38
2022-08-17T02:57:17.480Z,100392.44
2022-08-17T02:59:20.889Z,100395.13
2022-08-17T03:01:24.456Z,100393.75
2022-08-17T03:03:29.297Z,100399.41
2022-08-17T03:05:34.891Z,100391.59
2022-08-17T03:07:39.106Z,100404.81
2022-08-17T03:09:42.882Z,100390.69
2022-08-17T03:11:46.374Z,100393.34
2022-08-17T03:13:50.171Z,100380.03
2022-08-17T03:15:53.730Z,100389.59
2022-08-17T03:17:57.787Z,100386.88
2022-08-17T03:20:02.887Z,100392.09
2022-08-17T03:22:37.034Z,100383.22
2022-08-17T03:24:29.873Z,100391.41
2022-08-17T03:26:33.344Z,100389.75
2022-08-17T03:28:36.887Z,100394.97
2022-08-17T03:30:41.081Z,100395.31
2022-08-17T03:32:48.229Z,100387.34
2022-08-17T03:34:51.650Z,100385.66
2022-08-17T03:36:56.362Z,100396.97
2022-08-17T03:38:59.712Z,100388.91
2022-08-17T03:41:03.313Z,100387.47
2022-08-17T03:43:09.015Z,100391.31
2022-08-17T03:45:16.006Z,100379.72
2022-08-17T03:47:38.151Z,100384.81
2022-08-17T03:50:02.825Z,100383.69
2022-08-17T03:52:39.553Z,100376.41
2022-08-17T03:55:01.666Z,100384.50
2022-08-17T03:57:07.503Z,100391.22
2022-08-17T03:59:20.878Z,100399.47
2022-08-17T04:01:26.962Z,100355.50
2022-08-17T04:03:30.919Z,100402.94
2022-08-17T04:05:34.473Z,100405.50
2022-08-17T04:07:39.409Z,100396.94
2022-08-17T04:09:43.576Z,100396.22
2022-08-17T04:11:47.047Z,100385.84
2022-08-17T04:13:50.529Z,100389.78
2022-08-17T04:15:59.204Z,100388.09
2022-08-17T04:18:02.622Z,100406.38
2022-08-17T04:20:07.063Z,100407.66
2022-08-17T04:22:10.491Z,100414.88
2022-08-17T04:24:36.008Z,100412.25
2022-08-17T04:26:53.422Z,100419.09
2022-08-17T04:28:58.849Z,100418.78
2022-08-17T04:31:02.283Z,100409.47
2022-08-17T04:33:08.668Z,100412.63
2022-08-17T04:35:12.150Z,100413.28
2022-08-17T04:37:15.654Z,100412.59
2022-08-17T04:39:19.112Z,100410.88
2022-08-17T04:41:41.548Z,100415.31
2022-08-17T04:43:49.777Z,100409.13
2022-08-17T04:45:57.008Z,100398.47
2022-08-17T04:48:01.600Z,100411.53
2022-08-17T04:50:05.519Z,100412.94
2022-08-17T04:52:08.941Z,100422.88
2022-08-17T04:54:32.345Z,100411.78
2022-08-17T04:56:37.878Z,100413.38
2022-08-17T04:58:41.262Z,100426.72
2022-08-17T05:00:44.905Z,100419.53
2022-08-17T05:02:50.645Z,100422.25
2022-08-17T05:04:54.408Z,100432.16
2022-08-17T05:06:58.730Z,100431.41
2022-08-17T05:09:02.221Z,100434.91
2022-08-17T05:11:06.122Z,100431.19
2022-08-17T05:13:15.432Z,100419.28
2022-08-17T05:15:18.846Z,100420.88
2022-08-17T05:17:22.882Z,100419.28
2022-08-17T05:19:26.279Z,100422.13
2022-08-17T05:21:30.446Z,100409.94
2022-08-17T05:23:42.626Z,100426.75
2022-08-17T05:25:48.500Z,100424.06
2022-08-17T05:27:54.868Z,100411.41
2022-08-17T05:29:59.765Z,100411.59
2022-08-17T05:32:38.145Z,100405.13
2022-08-17T05:34:32.967Z,100398.88
2022-08-17T05:36:42.903Z,100407.19
2022-08-17T05:38:47.806Z,100408.88
2022-08-17T05:40:51.643Z,100409.19
2022-08-17T05:43:05.876Z,100403.03
2022-08-17T05:45:12.191Z,100404.03
2022-08-17T05:47:15.713Z,100404.41
2022-08-17T05:49:27.128Z,100401.75
2022-08-17T05:51:46.540Z,100425.72
2022-08-17T05:53:57.869Z,100417.13
2022-08-17T05:56:11.612Z,100410.97
2022-08-17T05:58:42.015Z,100415.25
2022-08-17T06:00:59.952Z,100408.25
2022-08-17T06:03:26.450Z,100412.09
2022-08-17T06:05:58.233Z,100415.06
2022-08-17T06:08:13.483Z,100446.13
2022-08-17T06:10:26.933Z,100457.44
2022-08-17T06:12:40.546Z,100457.22
2022-08-17T06:14:58.838Z,100457.63
2022-08-17T06:17:07.227Z,100465.69
2022-08-17T06:19:15.976Z,100464.19
2022-08-17T06:21:23.537Z,100452.13
2022-08-17T06:23:37.426Z,100461.69
2022-08-17T06:25:46.641Z,100464.38
2022-08-17T06:27:54.412Z,100479.75
2022-08-17T06:30:01.807Z,100473.81
2022-08-17T06:32:10.501Z,100472.31
2022-08-17T06:34:16.384Z,100461.69
2022-08-17T06:36:33.677Z,100481.72
2022-08-17T06:38:49.934Z,100478.44
2022-08-17T06:41:06.038Z,100479.91
2022-08-17T06:43:22.311Z,100485.75
2022-08-17T06:45:31.962Z,100483.69
2022-08-17T06:47:44.645Z,100489.63
2022-08-17T06:49:55.567Z,100487.50
2022-08-17T06:52:08.514Z,100497.38
2022-08-17T06:54:20.212Z,100498.16
2022-08-17T06:56:53.884Z,100493.56
2022-08-17T06:58:59.722Z,100481.22
2022-08-17T07:01:09.560Z,100501.25
2022-08-17T07:03:21.323Z,100485.09
2022-08-17T07:05:31.706Z,100488.28
2022-08-17T07:07:56.532Z,100494.47
2022-08-17T07:10:01.964Z,100509.00
2022-08-17T07:12:16.095Z,100513.22
2022-08-17T07:14:37.051Z,100506.59
2022-08-17T07:16:46.670Z,100496.53
2022-08-17T07:18:54.936Z,100494.44
2022-08-17T07:21:08.778Z,100491.78
2022-08-17T07:23:21.892Z,100490.06
2022-08-17T07:25:25.328Z,100481.13
2022-08-17T07:27:31.187Z,100482.59
2022-08-17T07:29:43.932Z,100463.00
2022-08-17T07:31:47.456Z,100487.59
2022-08-17T07:34:06.688Z,100492.81
2022-08-17T07:36:29.871Z,100491.94
2022-08-17T07:38:35.759Z,100498.03
2022-08-17T07:40:41.183Z,100512.09
2022-08-17T07:43:01.085Z,100520.16
2022-08-17T07:45:30.069Z,100517.41
2022-08-17T07:47:51.097Z,100520.00
2022-08-17T07:49:56.157Z,100534.19
2022-08-17T07:52:24.286Z,100542.25
2022-08-17T07:54:33.380Z,100540.28
2022-08-17T07:56:43.503Z,100529.06
2022-08-17T07:58:48.925Z,100539.63
2022-08-17T08:01:08.084Z,100544.84
2022-08-17T08:03:26.230Z,100534.59
2022-08-17T08:05:49.904Z,100544.09
2022-08-17T08:07:56.879Z,100544.19
2022-08-17T08:10:10.195Z,100521.22
2022-08-17T08:12:25.662Z,100546.59
2022-08-17T08:14:39.386Z,100541.28
2022-08-17T08:16:59.015Z,100542.16
2022-08-17T08:19:03.341Z,100547.69
2022-08-17T08:21:14.105Z,100548.72
2022-08-17T08:23:26.531Z,100553.16
2022-08-17T08:25:41.506Z,100543.28
2022-08-17T08:27:54.776Z,100543.59
2022-08-17T08:30:06.907Z,100553.16
2022-08-17T08:32:20.960Z,100555.09
2022-08-17T08:34:58.842Z,100559.78
2022-08-17T08:37:17.708Z,100553.78
2022-08-17T08:39:32.078Z,100568.03
2022-08-17T08:41:45.450Z,100561.06
2022-08-17T08:44:00.773Z,100552.06
2022-08-17T08:46:13.770Z,100537.97
2022-08-17T08:48:58.179Z,100545.66
2022-08-17T08:51:06.493Z,100540.34
2022-08-17T08:53:26.576Z,100542.91
2022-08-17T08:55:41.827Z,100540.31
2022-08-17T08:57:51.010Z,100545.75
2022-08-17T09:00:07.521Z,100546.63
2022-08-17T09:02:25.073Z,100551.25
2022-08-17T09:05:13.459Z,100563.81
2022-08-17T09:07:28.669Z,100566.50
2022-08-17T09:09:45.338Z,100564.00
2022-08-17T09:12:02.603Z,100564.81
2022-08-17T09:14:21.655Z,100562.03
2022-08-17T09:16:30.590Z,100561.13
2022-08-17T09:18:59.068Z,100561.75
2022-08-17T09:21:04.791Z,100558.25
2022-08-17T09:23:14.602Z,100563.06
2022-08-17T09:25:26.266Z,100554.59
2022-08-17T09:27:34.145Z,100561.63
2022-08-17T09:29:43.933Z,100566.09
2022-08-17T09:31:55.094Z,100560.91
2022-08-17T09:34:01.075Z,100562.56
2022-08-17T09:36:10.024Z,100569.75
2022-08-17T09:38:24.214Z,100568.13
2022-08-17T09:40:34.458Z,100569.84
2022-08-17T09:42:46.176Z,100575.09
2022-08-17T09:44:58.941Z,100584.72
2022-08-17T09:47:09.972Z,100584.94
2022-08-17T09:49:25.187Z,100586.75
2022-08-17T09:51:34.293Z,100592.50
2022-08-17T09:53:39.408Z,100594.31
2022-08-17T09:56:04.145Z,100597.84
2022-08-17T09:58:20.048Z,100596.63
2022-08-17T10:00:31.857Z,100596.63
2022-08-17T10:02:51.584Z,100595.78
2022-08-17T10:05:02.315Z,100596.81
2022-08-17T10:07:13.320Z,100590.03
2022-08-17T10:09:26.311Z,100591.00
2022-08-17T10:11:54.122Z,100583.97
2022-08-17T10:14:24.083Z,100590.66
2022-08-17T10:16:41.195Z,100595.47
2022-08-17T10:18:50.627Z,100585.63
2022-08-17T10:21:16.580Z,100579.84
2022-08-17T10:23:46.002Z,100573.53
2022-08-17T10:26:13.098Z,100557.41
2022-08-17T10:28:28.925Z,100550.38
2022-08-17T10:30:37.906Z,100555.00
2022-08-17T10:32:49.625Z,100550.53
2022-08-17T10:35:17.091Z,100546.28
2022-08-17T10:37:44.126Z,100534.56
2022-08-17T10:39:54.088Z,100539.88
2022-08-17T10:42:01.657Z,100544.03
2022-08-17T10:44:39.217Z,100547.53
2022-08-17T10:46:54.252Z,100559.94
2022-08-17T10:49:39.679Z,100564.31
2022-08-17T10:51:43.617Z,100568.56
2022-08-17T10:54:00.421Z,100573.50
2022-08-17T10:56:21.742Z,100582.47
2022-08-17T10:58:28.582Z,100577.03
2022-08-17T11:00:59.660Z,100583.88
2022-08-17T11:03:16.024Z,100582.50
2022-08-17T11:05:50.281Z,100587.47
2022-08-17T11:08:07.956Z,100584.09
2022-08-17T11:10:34.347Z,100588.13
2022-08-17T11:12:51.474Z,100581.97
2022-08-17T11:15:04.829Z,100581.47
2022-08-17T11:17:21.197Z,100582.69
2022-08-17T11:20:30.680Z,100585.56
2022-08-17T11:23:07.426Z,100578.16
2022-08-17T11:25:16.053Z,100560.06
2022-08-17T11:27:27.183Z,100587.66
2022-08-17T11:29:36.686Z,100583.88
2022-08-17T11:31:44.993Z,100584.44
2022-08-17T11:34:04.487Z,100595.19
2022-08-17T11:36:18.040Z,100599.19
2022-08-17T11:38:31.239Z,100589.69
2022-08-17T11:40:47.332Z,100586.91
2022-08-17T11:43:04.776Z,100583.34
2022-08-17T11:45:31.764Z,100579.91
2022-08-17T11:48:27.623Z,100583.66
2022-08-17T11:51:06.239Z,100582.59
2022-08-17T11:53:48.226Z,100582.00
2022-08-17T11:56:08.051Z,100583.47
2022-08-17T11:58:40.039Z,100585.09
2022-08-17T12:00:57.489Z,100586.13
2022-08-17T12:03:24.777Z,100590.78
2022-08-17T12:05:35.053Z,100585.97
2022-08-17T12:07:43.311Z,100571.91
2022-08-17T12:09:50.600Z,100589.13
2022-08-17T12:12:12.862Z,100577.06
2022-08-17T12:14:40.118Z,100582.91
2022-08-17T12:17:00.174Z,100579.31
2022-08-17T12:19:06.036Z,100581.38
2022-08-17T12:21:23.586Z,100585.44
2022-08-17T12:23:36.905Z,100578.34
2022-08-17T12:25:46.389Z,100587.31
2022-08-17T12:28:05.571Z,100575.94
2022-08-17T12:30:14.459Z,100583.44
2022-08-17T12:32:21.092Z,100584.38
2022-08-17T12:34:27.577Z,100582.66
2022-08-17T12:36:33.064Z,100578.94
2022-08-17T12:38:38.901Z,100584.78
2022-08-17T12:40:54.902Z,100570.94
2022-08-17T12:43:05.069Z,100582.59
2022-08-17T12:45:22.770Z,100576.63
2022-08-17T12:47:29.487Z,100575.47
2022-08-17T12:49:36.003Z,100580.56
2022-08-17T12:51:44.227Z,100591.38
2022-08-17T12:53:55.430Z,100586.13
2022-08-17T12:56:00.625Z,100586.50
2022-08-17T12:58:07.382Z,100579.75
2022-08-17T13:00:17.686Z,100574.72
2022-08-17T13:02:40.111Z,100571.06
2022-08-17T13:04:44.135Z,100577.47
2022-08-17T13:06:51.198Z,100577.16
2022-08-17T13:09:11.484Z,100577.56
2022-08-17T13:11:20.664Z,100575.72
2022-08-17T13:13:27.868Z,100573.50
2022-08-17T13:15:36.840Z,100577.78
2022-08-17T13:17:40.418Z,100581.66
2022-08-17T13:19:50.503Z,100579.34
2022-08-17T13:21:56.724Z,100589.41
2022-08-17T13:24:02.321Z,100579.63
2022-08-17T13:26:09.382Z,100581.72
2022-08-17T13:28:18.879Z,100576.44
2022-08-17T13:30:40.662Z,100585.66
2022-08-17T13:32:47.127Z,100594.91
2022-08-17T13:35:12.198Z,100580.06
2022-08-17T13:37:32.678Z,100582.38
2022-08-17T13:39:42.656Z,100587.41
2022-08-17T13:41:48.015Z,100579.50
2022-08-17T13:43:51.417Z,100582.28
2022-08-17T13:46:09.705Z,100587.22
2022-08-17T13:48:23.580Z,100592.84
2022-08-17T13:50:27.131Z,100585.13
2022-08-17T13:52:38.887Z,100586.53
2022-08-17T13:54:42.514Z,100579.59
2022-08-17T13:56:57.597Z,100586.53
2022-08-17T13:59:04.598Z,100577.38
2022-08-17T14:01:31.989Z,100590.78
2022-08-17T14:03:35.827Z,100590.00
2022-08-17T14:05:40.478Z,100573.53
2022-08-17T14:07:44.000Z,100591.63
2022-08-17T14:09:51.066Z,100589.28
2022-08-17T14:11:58.072Z,100593.44
2022-08-17T14:14:01.587Z,100583.56
2022-08-17T14:16:05.541Z,100579.94
2022-08-17T14:18:10.480Z,100583.91
2022-08-17T14:20:15.247Z,100580.94
2022-08-17T14:22:23.713Z,100588.88
2022-08-17T14:24:29.465Z,100589.66
2022-08-17T14:26:33.146Z,100583.34
2022-08-17T14:28:37.039Z,100567.78
2022-08-17T14:30:46.530Z,100572.66
2022-08-17T14:32:51.786Z,100577.31
2022-08-17T14:34:57.732Z,100581.50
2022-08-17T14:37:01.147Z,100576.31
2022-08-17T14:39:05.277Z,100567.03
2022-08-17T14:41:08.764Z,100568.22
2022-08-17T14:43:12.738Z,100569.25
2022-08-17T14:45:29.862Z,100565.16
2022-08-17T14:47:38.550Z,100550.25
2022-08-17T14:49:42.414Z,100559.41
2022-08-17T14:51:47.722Z,100568.81
2022-08-17T14:53:51.493Z,100568.78
2022-08-17T14:55:54.904Z,100561.91
2022-08-17T14:57:58.349Z,100558.81
2022-08-17T15:00:02.771Z,100552.47
2022-08-17T15:02:06.931Z,100553.25
2022-08-17T15:04:18.559Z,100551.63
2022-08-17T15:06:22.675Z,100553.53
2022-08-17T15:08:28.281Z,100552.38
2022-08-17T15:10:32.435Z,100551.09
2022-08-17T15:12:36.592Z,100542.56
2022-08-17T15:14:40.049Z,100553.03
2022-08-17T15:16:43.501Z,100549.00
2022-08-17T15:18:47.084Z,100543.13
2022-08-17T15:20:50.799Z,100536.63
2022-08-17T15:22:55.216Z,100534.03
2022-08-17T15:25:06.593Z,100538.97
2022-08-17T15:27:11.431Z,100532.59
2022-08-17T15:29:15.559Z,100521.00
2022-08-17T15:31:19.412Z,100532.72
2022-08-17T15:33:35.709Z,100542.06
2022-08-17T15:35:39.134Z,100546.50
2022-08-17T15:37:42.616Z,100539.34
2022-08-17T15:39:46.123Z,100528.53
2022-08-17T15:41:58.781Z,100536.50
2022-08-17T15:44:02.615Z,100538.31
2022-08-17T15:46:10.808Z,100537.50
2022-08-17T15:48:14.672Z,100517.72
2022-08-17T15:50:18.314Z,100533.69
2022-08-17T15:52:24.618Z,100528.59
2022-08-17T15:54:31.620Z,100535.63
2022-08-17T15:56:38.227Z,100536.59
2022-08-17T15:58:44.222Z,100536.28
2022-08-17T16:00:53.317Z,100537.59
2022-08-17T16:03:46.861Z,100541.16
2022-08-17T16:05:36.128Z,100544.88
2022-08-17T16:07:40.861Z,100552.88
2022-08-17T16:09:44.567Z,100534.81
2022-08-17T16:11:51.952Z,100553.97
2022-08-17T16:14:00.288Z,100563.31
2022-08-17T16:16:04.365Z,100561.06
2022-08-17T16:18:07.796Z,100558.03
2022-08-17T16:20:19.662Z,100555.72
2022-08-17T16:22:32.507Z,100546.91
2022-08-17T16:24:37.121Z,100562.19
2022-08-17T16:26:40.531Z,100560.78
2022-08-17T16:28:44.051Z,100564.56
2022-08-17T16:30:48.882Z,100564.41
2022-08-17T16:32:53.556Z,100571.28
2022-08-17T16:34:57.059Z,100557.75
2022-08-17T16:37:00.516Z,100566.59
2022-08-17T16:39:04.720Z,100562.25
2022-08-17T16:41:08.160Z,100563.63
2022-08-17T16:43:12.098Z,100557.47
2022-08-17T16:45:19.250Z,100559.41
2022-08-17T16:47:25.087Z,100551.66
2022-08-17T16:49:36.238Z,100550.69
2022-08-17T16:51:41.430Z,100554.53
2022-08-17T16:53:44.884Z,100551.16
2022-08-17T16:55:58.449Z,100542.13
2022-08-17T16:58:02.414Z,100549.75
2022-08-17T17:00:07.473Z,100558.47
2022-08-17T17:02:11.730Z,100556.41
2022-08-17T17:04:19.495Z,100549.69
2022-08-17T17:06:37.359Z,100548.28
2022-08-17T17:08:46.683Z,100562.91
2022-08-17T17:10:52.642Z,100562.19
2022-08-17T17:13:02.530Z,100559.19
2022-08-17T17:15:09.180Z,100561.25
2022-08-17T17:17:26.190Z,100571.13
2022-08-17T17:19:39.065Z,100571.56
2022-08-17T17:21:51.741Z,100568.38
2022-08-17T17:23:59.792Z,100562.59
2022-08-17T17:26:12.662Z,100570.03
2022-08-17T17:28:31.189Z,100564.50
2022-08-17T17:30:53.785Z,100568.53
2022-08-17T17:33:02.868Z,100569.56
2022-08-17T17:35:12.070Z,100570.81
2022-08-17T17:37:23.738Z,100568.06
2022-08-17T17:39:36.284Z,100582.44
2022-08-17T17:41:47.141Z,100577.13
2022-08-17T17:43:53.986Z,100583.53
2022-08-17T17:46:28.085Z,100591.94
2022-08-17T17:48:24.744Z,100586.31
2022-08-17T17:50:36.264Z,100577.22
2022-08-17T17:52:48.073Z,100605.31
2022-08-17T17:55:05.286Z,100600.16
2022-08-17T17:57:17.622Z,100601.66
2022-08-17T17:59:28.681Z,100591.75
2022-08-17T18:01:45.828Z,100591.97
2022-08-17T18:04:04.712Z,100584.59
2022-08-17T18:06:31.632Z,100587.94
2022-08-17T18:08:47.780Z,100586.88
2022-08-17T18:11:06.234Z,100587.63
2022-08-17T18:13:17.983Z,100584.25
2022-08-17T18:15:29.490Z,100578.50
2022-08-17T18:17:33.435Z,100570.00
2022-08-17T18:19:38.865Z,100574.59
2022-08-17T18:21:48.412Z,100584.84
2022-08-17T18:23:57.288Z,100578.50
2022-08-17T18:26:02.326Z,100591.97
2022-08-17T18:28:05.939Z,100590.03
2022-08-17T18:30:27.027Z,100596.31
2022-08-17T18:32:39.080Z,100604.59
2022-08-17T18:34:49.935Z,100598.59
2022-08-17T18:36:54.751Z,100606.72
2022-08-17T18:39:15.549Z,100611.56
2022-08-17T18:41:23.651Z,100617.22
2022-08-17T18:43:44.202Z,100609.44
2022-08-17T18:45:55.247Z,100618.16
2022-08-17T18:47:58.940Z,100621.88
2022-08-17T18:50:25.483Z,100634.50
2022-08-17T18:52:32.548Z,100631.41
2022-08-17T18:54:37.322Z,100632.66
2022-08-17T18:56:44.069Z,100632.81
2022-08-17T18:58:53.122Z,100652.16
2022-08-17T19:01:00.257Z,100651.53
2022-08-17T19:03:06.449Z,100657.22
2022-08-17T19:05:29.923Z,100658.78
2022-08-17T19:07:38.108Z,100650.94
2022-08-17T19:09:45.130Z,100661.56
2022-08-17T19:11:48.646Z,100662.56
2022-08-17T19:13:57.758Z,100669.78
2022-08-17T19:16:11.674Z,100667.03
2022-08-17T19:18:22.701Z,100668.00
2022-08-17T19:20:31.913Z,100669.94
2022-08-17T19:22:50.146Z,100661.09
2022-08-17T19:25:02.764Z,100669.09
2022-08-17T19:27:15.120Z,100672.59
2022-08-17T19:29:25.762Z,100667.38
2022-08-17T19:31:31.898Z,100665.44
2022-08-17T19:33:37.452Z,100661.56
2022-08-17T19:35:50.278Z,100666.91
2022-08-17T19:38:03.805Z,100671.41
2022-08-17T19:40:41.692Z,100664.00
2022-08-17T19:42:53.661Z,100664.00
2022-08-17T19:45:03.227Z,100660.53
2022-08-17T19:47:30.463Z,100668.44
2022-08-17T19:49:50.619Z,100676.50
2022-08-17T19:51:59.231Z,100681.78
2022-08-17T19:54:14.118Z,100681.03
2022-08-17T19:56:24.037Z,100670.59
2022-08-17T19:58:48.646Z,100677.91
2022-08-17T20:00:56.068Z,100676.28
2022-08-17T20:03:06.209Z,100676.59
2022-08-17T20:05:16.613Z,100679.59
2022-08-17T20:07:23.304Z,100674.38
2022-08-17T20:09:35.498Z,100673.88
2022-08-17T20:11:43.053Z,100677.56
2022-08-17T20:13:53.230Z,100673.53
2022-08-17T20:15:56.673Z,100672.16
2022-08-17T20:18:02.171Z,100666.97
2022-08-17T20:20:20.689Z,100670.50
2022-08-17T20:22:31.761Z,100664.06
2022-08-17T20:25:02.700Z,100672.16
2022-08-17T20:27:16.254Z,100676.50
2022-08-17T20:29:39.464Z,100679.19
2022-08-17T20:31:48.875Z,100683.97
2022-08-17T20:33:52.270Z,100687.41
2022-08-17T20:36:17.069Z,100692.44
2022-08-17T20:38:40.590Z,100691.56
2022-08-17T20:41:13.210Z,100693.28
2022-08-17T20:43:51.742Z,100699.63
2022-08-17T20:46:22.058Z,100705.13
2022-08-17T20:48:38.284Z,100698.19
2022-08-17T20:50:48.169Z,100701.03
2022-08-17T20:52:54.146Z,100701.06
2022-08-17T20:54:58.229Z,100693.44
2022-08-17T20:57:06.128Z,100690.00
2022-08-17T20:59:55.177Z,100699.66
2022-08-17T21:02:18.295Z,100694.53
2022-08-17T21:04:44.838Z,100690.09
2022-08-17T21:07:29.044Z,100693.13
2022-08-17T21:09:32.580Z,100691.00
2022-08-17T21:12:03.948Z,100689.88
2022-08-17T21:14:20.507Z,100687.50
2022-08-17T21:16:34.320Z,100695.09
2022-08-17T21:18:51.512Z,100694.50
2022-08-17T21:21:06.609Z,100700.78
2022-08-17T21:23:30.600Z,100698.09
2022-08-17T21:25:52.817Z,100696.47
2022-08-17T21:28:08.249Z,100644.75
2022-08-17T21:30:24.591Z,100699.97
2022-08-17T21:32:31.311Z,100701.97
2022-08-17T21:34:36.998Z,100683.53
2022-08-17T21:36:40.523Z,100701.22
2022-08-17T21:38:57.698Z,100697.66
2022-08-17T21:41:02.281Z,100694.28
2022-08-17T21:43:23.579Z,100696.34
2022-08-17T21:45:35.044Z,100705.25
2022-08-17T21:47:47.487Z,100710.56
2022-08-17T21:49:50.983Z,100715.03
2022-08-17T21:51:56.869Z,100713.72
2022-08-17T21:54:03.877Z,100713.88
2022-08-17T21:56:09.060Z,100711.91
2022-08-17T21:58:29.842Z,100713.94
2022-08-17T22:00:34.646Z,100727.44
2022-08-17T22:02:42.684Z,100732.81
2022-08-17T22:04:57.631Z,100731.59
2022-08-17T22:07:03.469Z,100731.13
2022-08-17T22:09:14.288Z,100736.53
2022-08-17T22:11:18.513Z,100738.38
2022-08-17T22:13:24.104Z,100743.81
2022-08-17T22:15:39.801Z,100739.56
2022-08-17T22:17:47.570Z,100724.41
2022-08-17T22:19:53.208Z,100716.59
2022-08-17T22:22:04.153Z,100719.50
2022-08-17T22:24:17.974Z,100714.41
2022-08-17T22:26:23.594Z,100712.72
2022-08-17T22:28:39.578Z,100714.47
2022-08-17T22:30:59.531Z,100734.72
2022-08-17T22:33:29.696Z,100712.69
2022-08-17T22:35:43.974Z,100732.00
2022-08-17T22:37:47.875Z,100720.16
2022-08-17T22:39:58.726Z,100739.22
2022-08-17T22:42:02.488Z,100748.66
2022-08-17T22:44:28.211Z,100744.13
2022-08-17T22:46:48.668Z,100732.22
2022-08-17T22:48:57.613Z,100725.03
2022-08-17T22:51:12.578Z,100712.72
2022-08-17T22:53:48.717Z,100738.28
2022-08-17T22:56:15.457Z,100741.06
2022-08-17T22:58:40.635Z,100741.06
2022-08-17T23:00:46.411Z,100732.34
2022-08-17T23:03:09.588Z,100745.31
2022-08-17T23:05:21.551Z,100749.91
2022-08-17T23:07:25.082Z,100756.22
2022-08-17T23:09:29.875Z,100754.25
2022-08-17T23:11:49.307Z,100750.69
2022-08-17T23:13:54.945Z,100758.88
2022-08-17T23:15:58.379Z,100748.13
2022-08-17T23:18:04.570Z,100759.56
2022-08-17T23:20:13.077Z,100757.59
2022-08-17T23:22:16.605Z,100754.09
2022-08-17T23:24:23.796Z,100756.69
2022-08-17T23:26:27.650Z,100763.78
2022-08-17T23:28:31.132Z,100764.63
2022-08-17T23:30:39.326Z,100750.69
2022-08-17T23:32:53.322Z,100770.00
2022-08-17T23:34:59.155Z,100763.66
2022-08-17T23:37:04.448Z,100774.19
2022-08-17T23:39:08.726Z,100774.09
2022-08-17T23:41:16.330Z,100781.38
2022-08-17T23:43:25.426Z,100784.09
2022-08-17T23:45:30.913Z,100781.44
2022-08-17T23:47:34.762Z,100776.31
2022-08-17T23:49:41.312Z,100774.63
2022-08-17T23:51:45.735Z,100771.16
2022-08-17T23:53:55.464Z,100775.53
2022-08-17T23:56:09.605Z,100775.34
2022-08-17T23:58:14.364Z,100781.69
